Time,TemperatureF,DewpointF,PressureIn,WindDirection,WindDirectionDegrees,WindSpeedMPH,WindSpeedGustMPH,Humidity,HourlyPrecipIn,Conditions,Clouds,dailyrainin,SoftwareType,DateUTC
2013-09-29 00:00:00,48.6,47.0,30.26,SE,140,0.0,0.0,94,0.00,RA,,0.00,WeatherDisplay:10.37,2013-09-29 04:00:00,
2013-09-29 00:01:00,48.5,46.9,30.26,SE,140,0.0,0.0,94,0.00,RA,,0.00,WeatherDisplay:10.37,2013-09-29 04:01:00,
2013-09-29 00:02:00,48.5,46.9,30.26,SE,140,0.0,0.0,94,0.00,RA,,0.00,WeatherDisplay:10.37,2013-09-29 04:02:00,
2013-09-29 00:07:00,48.3,46.7,30.26,SE,140,0.0,1.0,94,0.00,RA,,0.00,WeatherDisplay:10.37,2013-09-29 04:07:00,
2013-09-29 00:12:00,48.2,46.6,30.26,SE,140,0.0,0.0,94,0.00,FEW,,0.00,WeatherDisplay:10.37,2013-09-29 04:12:00,
2013-09-29 00:17:00,48.0,46.4,30.26,SE,140,0.0,0.0,94,0.00,CLR,,0.00,WeatherDisplay:10.37,2013-09-29 04:17:00,
2013-09-29 00:22:00,47.9,46.5,30.26,SE,140,0.0,0.0,95,0.00,CLR,,0.00,WeatherDisplay:10.37,2013-09-29 04:22:00,
2013-09-29 00:27:00,47.9,46.5,30.26,SE,140,0.0,0.0,95,0.00,CLR,,0.00,WeatherDisplay:10.37,2013-09-29 04:27:00,
2013-09-29 00:32:00,47.9,46.5,30.26,SE,140,0.0,0.0,95,0.00,CLR,,0.00,WeatherDisplay:10.37,2013-09-29 04:32:00,
2013-09-29 00:37:00,48.0,46.6,30.26,SE,140,0.0,0.0,95,0.00,CLR,,0.00,WeatherDisplay:10.37,2013-09-29 04:37:00,
2013-09-29 00:42:00,48.1,46.7,30.26,SE,140,0.0,0.0,95,0.00,CLR,,0.00,WeatherDisplay:10.37,2013-09-29 04:42:00,
2013-09-29 00:47:00,48.0,46.6,30.26,SE,140,0.0,0.0,95,0.00,CLR,,0.00,WeatherDisplay:10.37,2013-09-29 04:47:00,
2013-09-29 00:52:00,48.0,46.6,30.26,SE,140,0.0,0.0,95,0.00,CLR,,0.00,WeatherDisplay:10.37,2013-09-29 04:52:00,
2013-09-29 00:57:00,48.1,46.7,30.26,SE,140,0.0,0.0,95,0.00,CLR,,0.00,WeatherDisplay:10.37,2013-09-29 04:57:00,
2013-09-29 01:02:00,48.0,46.6,30.26,SE,140,0.0,0.0,95,0.00,CLR,,0.00,WeatherDisplay:10.37,2013-09-29 05:02:00,
2013-09-29 01:07:00,48.0,46.9,30.26,SE,140,0.0,0.0,96,0.00,CLR,,0.00,WeatherDisplay:10.37,2013-09-29 05:07:00,
2013-09-29 01:12:00,48.0,46.9,30.26,SE,140,0.0,0.0,96,0.00,CLR,,0.00,WeatherDisplay:10.37,2013-09-29 05:12:00,
2013-09-29 01:17:00,47.9,46.8,30.26,SE,140,0.0,0.0,96,0.00,CLR,,0.00,WeatherDisplay:10.37,2013-09-29 05:17:00,
2013-09-29 01:22:00,47.9,46.8,30.26,SE,140,0.0,0.0,96,0.00,CLR,,0.00,WeatherDisplay:10.37,2013-09-29 05:22:00,
2013-09-29 01:27:00,47.8,46.4,30.26,SE,140,0.0,0.0,95,0.00,CLR,,0.00,WeatherDisplay:10.37,2013-09-29 05:27:00,
2013-09-29 01:32:00,47.7,46.3,30.26,SE,140,0.0,0.0,95,0.00,CLR,,0.00,WeatherDisplay:10.37,2013-09-29 05:32:00,
2013-09-29 01:37:00,47.6,46.5,30.26,SE,140,0.0,0.0,96,0.00,CLR,,0.00,WeatherDisplay:10.37,2013-09-29 05:37:00,
2013-09-29 01:42:00,47.6,46.5,30.26,SE,140,0.0,0.0,96,0.00,CLR,,0.00,WeatherDisplay:10.37,2013-09-29 05:42:00,
2013-09-29 01:47:00,47.7,46.6,30.25,SE,140,0.0,0.0,96,0.00,CLR,,0.00,WeatherDisplay:10.37,2013-09-29 05:47:00,
2013-09-29 01:52:00,47.5,46.4,30.25,SE,140,0.0,0.0,96,0.00,CLR,,0.00,WeatherDisplay:10.37,2013-09-29 05:52:00,
2013-09-29 01:57:00,47.5,46.4,30.25,SE,140,0.0,0.0,96,0.00,CLR,,0.00,WeatherDisplay:10.37,2013-09-29 05:57:00,
2013-09-29 02:02:00,47.3,46.2,30.25,SE,140,0.0,0.0,96,0.00,CLR,,0.00,WeatherDisplay:10.37,2013-09-29 06:02:00,
2013-09-29 02:07:00,47.2,46.1,30.25,SE,140,0.0,0.0,96,0.00,CLR,,0.00,WeatherDisplay:10.37,2013-09-29 06:07:00,
2013-09-29 02:12:00,47.1,46.0,30.25,SE,140,0.0,0.0,96,0.00,CLR,,0.00,WeatherDisplay:10.37,2013-09-29 06:12:00,
2013-09-29 02:17:00,47.0,45.9,30.25,SE,140,0.0,0.0,96,0.00,CLR,,0.00,WeatherDisplay:10.37,2013-09-29 06:17:00,
2013-09-29 02:22:00,47.0,45.9,30.25,SE,140,0.0,0.0,96,0.00,CLR,,0.00,WeatherDisplay:10.37,2013-09-29 06:22:00,
2013-09-29 02:27:00,46.9,45.8,30.25,SE,140,0.0,0.0,96,0.00,CLR,,0.00,WeatherDisplay:10.37,2013-09-29 06:27:00,
2013-09-29 02:32:00,46.9,45.8,30.24,SE,140,0.0,0.0,96,0.00,CLR,,0.00,WeatherDisplay:10.37,2013-09-29 06:32:00,
2013-09-29 02:37:00,46.9,45.8,30.25,SE,140,0.0,0.0,96,0.00,CLR,,0.00,WeatherDisplay:10.37,2013-09-29 06:37:00,
2013-09-29 02:42:00,46.9,45.8,30.24,SE,140,0.0,0.0,96,0.00,CLR,,0.00,WeatherDisplay:10.37,2013-09-29 06:42:00,
2013-09-29 02:47:00,47.0,45.9,30.24,SE,140,0.0,0.0,96,0.00,CLR,,0.00,WeatherDisplay:10.37,2013-09-29 06:47:00,
2013-09-29 02:52:00,47.2,46.4,30.24,SE,140,0.0,0.0,97,0.00,CLR,,0.00,WeatherDisplay:10.37,2013-09-29 06:52:00,
2013-09-29 02:57:00,47.3,46.5,30.24,SE,140,0.0,0.0,97,0.00,CLR,,0.00,WeatherDisplay:10.37,2013-09-29 06:57:00,
2013-09-29 03:02:00,47.4,46.6,30.24,SE,140,0.0,0.0,97,0.00,CLR,,0.00,WeatherDisplay:10.37,2013-09-29 07:02:00,
2013-09-29 03:07:00,47.4,46.6,30.23,SE,140,0.0,0.0,97,0.00,CLR,,0.00,WeatherDisplay:10.37,2013-09-29 07:07:00,
2013-09-29 03:12:00,47.4,46.6,30.23,SE,140,0.0,0.0,97,0.00,CLR,,0.00,WeatherDisplay:10.37,2013-09-29 07:12:00,
2013-09-29 03:17:00,47.4,46.6,30.23,SE,140,0.0,0.0,97,0.00,CLR,,0.00,WeatherDisplay:10.37,2013-09-29 07:17:00,
2013-09-29 03:22:00,47.5,46.7,30.23,SE,140,0.0,0.0,97,0.00,CLR,,0.00,WeatherDisplay:10.37,2013-09-29 07:22:00,
2013-09-29 03:27:00,47.5,46.7,30.23,SE,140,0.0,0.0,97,0.00,CLR,,0.00,WeatherDisplay:10.37,2013-09-29 07:27:00,
2013-09-29 03:32:00,47.4,46.6,30.23,SE,140,0.0,0.0,97,0.00,CLR,,0.00,WeatherDisplay:10.37,2013-09-29 07:32:00,
2013-09-29 03:37:00,47.4,46.6,30.23,SE,140,0.0,0.0,97,0.00,CLR,,0.00,WeatherDisplay:10.37,2013-09-29 07:37:00,
2013-09-29 03:42:00,47.4,46.3,30.22,SE,140,0.0,0.0,96,0.00,CLR,,0.00,WeatherDisplay:10.37,2013-09-29 07:42:00,
2013-09-29 03:47:00,47.3,46.2,30.22,SE,140,0.0,0.0,96,0.00,CLR,,0.00,WeatherDisplay:10.37,2013-09-29 07:47:00,
2013-09-29 03:52:00,47.2,46.4,30.22,SE,140,0.0,0.0,97,0.00,CLR,,0.00,WeatherDisplay:10.37,2013-09-29 07:52:00,
2013-09-29 03:57:00,47.4,46.6,30.22,SE,140,0.0,0.0,97,0.00,CLR,,0.00,WeatherDisplay:10.37,2013-09-29 07:57:00,
2013-09-29 04:02:00,47.3,46.5,30.22,SE,140,0.0,1.2,97,0.00,CLR,,0.00,WeatherDisplay:10.37,2013-09-29 08:02:00,
2013-09-29 04:07:00,47.3,46.5,30.22,SE,140,0.0,0.0,97,0.00,CLR,,0.00,WeatherDisplay:10.37,2013-09-29 08:07:00,
2013-09-29 04:12:00,47.4,46.6,30.23,SE,140,0.0,0.0,97,0.00,CLR,,0.00,WeatherDisplay:10.37,2013-09-29 08:12:00,
2013-09-29 04:17:00,47.4,46.6,30.23,SE,140,0.7,2.3,97,0.00,CLR,,0.00,WeatherDisplay:10.37,2013-09-29 08:17:00,
2013-09-29 04:22:00,47.3,46.5,30.22,SE,140,0.0,0.0,97,0.00,CLR,,0.00,WeatherDisplay:10.37,2013-09-29 08:22:00,
2013-09-29 04:27:00,47.2,46.4,30.22,SE,140,0.0,0.0,97,0.00,CLR,,0.00,WeatherDisplay:10.37,2013-09-29 08:27:00,
2013-09-29 04:32:00,47.2,46.4,30.22,SE,140,0.0,0.0,97,0.00,CLR,,0.00,WeatherDisplay:10.37,2013-09-29 08:32:00,
2013-09-29 04:37:00,47.2,46.4,30.22,SE,140,0.0,0.0,97,0.00,CLR,,0.00,WeatherDisplay:10.37,2013-09-29 08:37:00,
2013-09-29 04:42:00,47.2,46.4,30.22,SE,140,0.0,0.0,97,0.00,CLR,,0.00,WeatherDisplay:10.37,2013-09-29 08:42:00,
2013-09-29 04:47:00,47.1,46.3,30.22,SE,140,0.0,0.0,97,0.00,CLR,,0.00,WeatherDisplay:10.37,2013-09-29 08:47:00,
2013-09-29 04:52:00,47.1,46.3,30.22,SE,140,0.0,0.0,97,0.00,CLR,,0.00,WeatherDisplay:10.37,2013-09-29 08:52:00,
2013-09-29 04:57:00,47.0,46.2,30.22,SE,140,0.0,0.0,97,0.00,CLR,,0.00,WeatherDisplay:10.37,2013-09-29 08:57:00,
2013-09-29 05:02:00,47.0,46.2,30.22,SE,140,0.0,0.0,97,0.00,CLR,,0.00,WeatherDisplay:10.37,2013-09-29 09:02:00,
2013-09-29 05:07:00,46.9,46.1,30.22,SE,140,0.0,0.0,97,0.00,CLR,,0.00,WeatherDisplay:10.37,2013-09-29 09:07:00,
2013-09-29 05:12:00,46.8,46.0,30.22,SE,140,0.0,0.0,97,0.00,CLR,,0.00,WeatherDisplay:10.37,2013-09-29 09:12:00,
2013-09-29 05:17:00,46.8,46.0,30.22,SE,140,0.0,0.0,97,0.00,CLR,,0.00,WeatherDisplay:10.37,2013-09-29 09:17:00,
2013-09-29 05:22:00,46.8,46.0,30.22,SE,140,0.0,0.0,97,0.00,CLR,,0.00,WeatherDisplay:10.37,2013-09-29 09:22:00,
2013-09-29 05:27:00,46.8,46.0,30.22,SE,140,0.0,0.0,97,0.00,CLR,,0.00,WeatherDisplay:10.37,2013-09-29 09:27:00,
2013-09-29 05:32:00,46.7,45.9,30.22,SE,140,0.0,1.2,97,0.00,CLR,,0.00,WeatherDisplay:10.37,2013-09-29 09:32:00,
2013-09-29 05:37:00,46.7,45.9,30.22,SE,140,0.0,0.0,97,0.00,CLR,,0.00,WeatherDisplay:10.37,2013-09-29 09:37:00,
2013-09-29 05:42:00,46.7,45.9,30.23,SE,140,0.0,0.0,97,0.00,CLR,,0.00,WeatherDisplay:10.37,2013-09-29 09:42:00,
2013-09-29 05:47:00,46.7,45.9,30.22,SE,140,0.0,0.0,97,0.00,CLR,,0.00,WeatherDisplay:10.37,2013-09-29 09:47:00,
2013-09-29 05:52:00,46.6,45.8,30.23,SE,140,0.0,0.0,97,0.00,CLR,,0.00,WeatherDisplay:10.37,2013-09-29 09:52:00,
2013-09-29 05:57:00,46.6,45.8,30.23,SE,140,0.0,0.0,97,0.00,CLR,,0.00,WeatherDisplay:10.37,2013-09-29 09:57:00,
2013-09-29 06:04:00,46.6,45.8,30.23,SE,140,0.0,0.0,97,0.00,CLR,,0.00,WeatherDisplay:10.37,2013-09-29 10:04:00,
2013-09-29 06:09:00,46.6,45.8,30.23,SE,140,0.0,0.0,97,0.00,CLR,,0.00,WeatherDisplay:10.37,2013-09-29 10:09:00,
2013-09-29 06:14:00,46.7,45.9,30.23,SE,140,0.0,0.0,97,0.00,CLR,,0.00,WeatherDisplay:10.37,2013-09-29 10:14:00,
2013-09-29 06:19:00,46.8,46.0,30.23,SE,140,0.0,0.0,97,0.00,CLR,,0.00,WeatherDisplay:10.37,2013-09-29 10:19:00,
2013-09-29 06:24:00,46.8,46.0,30.23,SE,140,0.0,0.0,97,0.00,CLR,,0.00,WeatherDisplay:10.37,2013-09-29 10:24:00,
2013-09-29 06:29:00,46.9,46.1,30.23,SE,140,0.0,0.0,97,0.00,CLR,,0.00,WeatherDisplay:10.37,2013-09-29 10:29:00,
2013-09-29 06:34:00,46.9,46.1,30.23,SE,140,0.0,0.0,97,0.00,CLR,,0.00,WeatherDisplay:10.37,2013-09-29 10:34:00,
2013-09-29 06:39:00,47.0,46.2,30.23,SE,140,0.0,0.0,97,0.00,CLR,,0.00,WeatherDisplay:10.37,2013-09-29 10:39:00,
2013-09-29 06:44:00,47.0,46.2,30.23,SE,140,0.0,0.0,97,0.00,CLR,,0.00,WeatherDisplay:10.37,2013-09-29 10:44:00,
2013-09-29 06:49:00,47.0,46.2,30.23,SE,140,0.0,0.0,97,0.00,CLR,,0.00,WeatherDisplay:10.37,2013-09-29 10:49:00,
2013-09-29 06:54:00,47.0,46.2,30.23,SE,140,0.0,0.0,97,0.00,CLR,,0.00,WeatherDisplay:10.37,2013-09-29 10:54:00,
2013-09-29 06:59:00,47.2,46.4,30.23,SE,140,0.0,0.0,97,0.00,CLR,,0.00,WeatherDisplay:10.37,2013-09-29 10:59:00,
2013-09-29 07:04:00,47.3,46.5,30.23,SE,140,0.0,0.0,97,0.00,CLR,,0.00,WeatherDisplay:10.37,2013-09-29 11:04:00,
2013-09-29 07:09:00,47.3,46.5,30.23,SE,140,0.2,0.0,97,0.00,CLR,,0.00,WeatherDisplay:10.37,2013-09-29 11:09:00,
2013-09-29 07:14:00,47.3,46.5,30.23,SE,140,0.0,0.0,97,0.00,CLR,,0.00,WeatherDisplay:10.37,2013-09-29 11:14:00,
2013-09-29 07:19:00,47.2,46.4,30.23,SE,140,0.0,0.0,97,0.00,CLR,,0.00,WeatherDisplay:10.37,2013-09-29 11:19:00,
2013-09-29 07:24:00,47.2,46.4,30.23,SE,140,0.0,0.0,97,0.00,CLR,,0.00,WeatherDisplay:10.37,2013-09-29 11:24:00,
2013-09-29 07:29:00,47.2,46.4,30.23,SE,140,0.0,0.0,97,0.00,CLR,,0.00,WeatherDisplay:10.37,2013-09-29 11:29:00,
2013-09-29 07:34:00,47.3,46.5,30.23,SE,140,0.0,0.0,97,0.00,CLR,,0.00,WeatherDisplay:10.37,2013-09-29 11:34:00,
2013-09-29 07:39:00,47.3,46.8,30.23,SE,140,0.1,1.0,98,0.00,CLR,,0.00,WeatherDisplay:10.37,2013-09-29 11:39:00,
2013-09-29 07:44:00,47.4,46.9,30.23,SE,140,0.1,1.2,98,0.00,CLR,,0.00,WeatherDisplay:10.37,2013-09-29 11:44:00,
2013-09-29 07:49:00,47.4,46.9,30.23,SE,140,0.0,0.0,98,0.00,CLR,,0.00,WeatherDisplay:10.37,2013-09-29 11:49:00,
2013-09-29 07:54:00,47.6,47.1,30.23,SE,140,0.0,0.0,98,0.00,CLR,,0.00,WeatherDisplay:10.37,2013-09-29 11:54:00,
2013-09-29 07:59:00,47.7,47.2,30.23,SE,140,0.1,1.0,98,0.00,CLR,,0.00,WeatherDisplay:10.37,2013-09-29 11:59:00,
2013-09-29 08:04:00,47.8,47.3,30.23,SE,140,0.0,1.2,98,0.00,CLR,,0.00,WeatherDisplay:10.37,2013-09-29 12:04:00,
2013-09-29 08:09:00,47.8,47.3,30.23,SE,140,0.4,0.0,98,0.00,CLR,,0.00,WeatherDisplay:10.37,2013-09-29 12:09:00,
2013-09-29 08:14:00,47.8,47.0,30.23,SE,140,0.2,1.2,97,0.00,CLR,,0.00,WeatherDisplay:10.37,2013-09-29 12:14:00,
2013-09-29 08:19:00,47.9,47.1,30.23,SE,140,0.0,0.0,97,0.00,CLR,,0.00,WeatherDisplay:10.37,2013-09-29 12:19:00,
2013-09-29 08:24:00,48.1,47.6,30.23,SE,140,0.0,0.0,98,0.00,CLR,,0.00,WeatherDisplay:10.37,2013-09-29 12:24:00,
2013-09-29 08:29:00,48.4,47.9,30.23,SE,140,0.0,1.2,98,0.00,CLR,,0.00,WeatherDisplay:10.37,2013-09-29 12:29:00,
2013-09-29 08:34:00,48.6,48.1,30.23,SE,140,0.0,0.0,98,0.00,CLR,,0.00,WeatherDisplay:10.37,2013-09-29 12:34:00,
2013-09-29 08:39:00,49.0,48.5,30.23,SE,140,0.0,0.0,98,0.00,CLR,,0.00,WeatherDisplay:10.37,2013-09-29 12:39:00,
2013-09-29 08:44:00,49.2,48.7,30.23,SE,140,0.0,0.0,98,0.00,CLR,,0.00,WeatherDisplay:10.37,2013-09-29 12:44:00,
2013-09-29 08:49:00,49.4,48.9,30.23,SE,140,0.7,2.3,98,0.00,CLR,,0.00,WeatherDisplay:10.37,2013-09-29 12:49:00,
2013-09-29 08:54:00,49.4,48.9,30.24,SE,140,0.0,0.0,98,0.00,CLR,,0.00,WeatherDisplay:10.37,2013-09-29 12:54:00,
2013-09-29 08:59:00,49.5,49.0,30.24,SE,140,0.0,0.0,98,0.00,CLR,,0.00,WeatherDisplay:10.37,2013-09-29 12:59:00,
2013-09-29 09:04:00,49.7,49.2,30.24,SE,140,0.0,0.0,98,0.00,CLR,,0.00,WeatherDisplay:10.37,2013-09-29 13:04:00,
2013-09-29 09:09:00,50.0,49.5,30.24,SE,140,0.2,2.3,98,0.00,CLR,,0.00,WeatherDisplay:10.37,2013-09-29 13:09:00,
2013-09-29 09:14:00,50.0,49.5,30.24,WSW,250,0.8,2.3,98,0.00,CLR,,0.00,WeatherDisplay:10.37,2013-09-29 13:14:00,
2013-09-29 09:19:00,50.1,49.6,30.24,WSW,250,0.7,2.3,98,0.00,CLR,,0.00,WeatherDisplay:10.37,2013-09-29 13:19:00,
2013-09-29 09:24:00,50.2,49.7,30.24,WSW,250,0.0,0.0,98,0.00,CLR,,0.00,WeatherDisplay:10.37,2013-09-29 13:24:00,
2013-09-29 09:29:00,50.4,49.9,30.24,SSE,150,1.2,3.5,98,0.00,CLR,,0.00,WeatherDisplay:10.37,2013-09-29 13:29:00,
2013-09-29 09:34:00,50.5,50.0,30.24,SSE,161,0.6,2.3,98,0.00,CLR,,0.00,WeatherDisplay:10.37,2013-09-29 13:34:00,
2013-09-29 09:39:00,50.7,50.2,30.24,SE,134,0.2,1.2,98,0.00,CLR,,0.00,WeatherDisplay:10.37,2013-09-29 13:39:00,
2013-09-29 09:44:00,51.0,50.5,30.24,South,173,0.0,1.2,98,0.00,CLR,,0.00,WeatherDisplay:10.37,2013-09-29 13:44:00,
2013-09-29 09:49:00,51.3,50.8,30.24,South,173,0.3,2.3,98,0.00,CLR,,0.00,WeatherDisplay:10.37,2013-09-29 13:49:00,
2013-09-29 09:54:00,51.4,50.9,30.24,South,173,0.4,2.3,98,0.00,CLR,,0.00,WeatherDisplay:10.37,2013-09-29 13:54:00,
2013-09-29 09:59:00,51.5,51.0,30.24,SSE,161,0.3,1.2,98,0.01,RA,,0.01,WeatherDisplay:10.37,2013-09-29 13:59:00,
2013-09-29 10:04:00,51.7,51.2,30.24,SSE,165,1.2,2.0,98,0.01,RA,,0.01,WeatherDisplay:10.37,2013-09-29 14:04:00,
2013-09-29 10:09:00,51.7,51.2,30.24,South,169,0.3,3.5,98,0.01,CLR,,0.01,WeatherDisplay:10.37,2013-09-29 14:09:00,
2013-09-29 10:14:00,51.9,51.4,30.24,South,169,0.0,2.3,98,0.01,CLR,,0.01,WeatherDisplay:10.37,2013-09-29 14:14:00,
2013-09-29 10:19:00,52.0,51.5,30.24,South,169,0.1,1.2,98,0.01,CLR,,0.01,WeatherDisplay:10.37,2013-09-29 14:19:00,
2013-09-29 10:24:00,52.1,51.6,30.24,SSW,211,0.8,2.3,98,0.01,CLR,,0.01,WeatherDisplay:10.37,2013-09-29 14:24:00,
2013-09-29 10:29:00,52.4,51.9,30.24,SSW,211,0.2,2.0,98,0.01,CLR,,0.01,WeatherDisplay:10.37,2013-09-29 14:29:00,
2013-09-29 10:34:00,52.7,52.2,30.24,SSW,211,0.1,1.2,98,0.01,OVC,,0.01,WeatherDisplay:10.37,2013-09-29 14:34:00,
2013-09-29 10:39:00,52.9,52.4,30.24,SSW,211,0.0,1.2,98,0.01,OVC,,0.01,WeatherDisplay:10.37,2013-09-29 14:39:00,
2013-09-29 10:44:00,53.1,52.6,30.24,SSW,205,1.2,3.5,98,0.01,OVC,,0.01,WeatherDisplay:10.37,2013-09-29 14:44:00,
2013-09-29 10:49:00,53.3,52.8,30.24,SSW,205,0.1,1.2,98,0.01,OVC,,0.01,WeatherDisplay:10.37,2013-09-29 14:49:00,
2013-09-29 10:54:00,53.4,52.8,30.23,East,88,0.1,2.3,98,0.01,OVC,,0.01,WeatherDisplay:10.37,2013-09-29 14:54:00,
2013-09-29 10:59:00,53.3,52.5,30.23,SSE,159,1.1,2.3,97,0.00,OVC,,0.01,WeatherDisplay:10.37,2013-09-29 14:59:00,
2013-09-29 11:04:00,53.5,52.7,30.23,SSE,168,0.2,2.3,97,0.00,OVC,,0.01,WeatherDisplay:10.37,2013-09-29 15:04:00,
2013-09-29 11:09:00,53.8,53.0,30.23,East,91,1.2,3.5,97,0.00,OVC,,0.01,WeatherDisplay:10.37,2013-09-29 15:09:00,
2013-09-29 11:15:00,54.1,53.0,30.23,NE,50,0.1,1.0,96,0.00,OVC,,0.01,WeatherDisplay:10.37,2013-09-29 15:15:00,
2013-09-29 11:20:00,54.8,53.7,30.23,East,95,0.8,3.5,96,0.00,OVC,,0.01,WeatherDisplay:10.37,2013-09-29 15:20:00,
2013-09-29 11:25:00,55.3,53.3,30.22,SSE,156,2.0,3.0,93,0.00,OVC,,0.01,WeatherDisplay:10.37,2013-09-29 15:25:00,
2013-09-29 11:30:00,55.7,52.5,30.22,SSE,150,0.1,1.2,89,0.00,OVC,,0.01,WeatherDisplay:10.37,2013-09-29 15:30:00,
2013-09-29 11:35:00,56.1,52.3,30.22,South,171,3.0,3.5,87,0.00,SCT,,0.01,WeatherDisplay:10.37,2013-09-29 15:35:00,
2013-09-29 11:40:00,56.4,51.6,30.22,SSE,161,2.0,4.0,84,0.00,SCT,,0.01,WeatherDisplay:10.37,2013-09-29 15:40:00,
2013-09-29 11:45:00,57.0,51.9,30.21,South,178,1.0,3.5,83,0.00,SCT,,0.01,WeatherDisplay:10.37,2013-09-29 15:45:00,
2013-09-29 11:50:00,57.7,51.9,30.21,SSE,165,0.8,3.5,81,0.00,SCT,,0.01,WeatherDisplay:10.37,2013-09-29 15:50:00,
2013-09-29 11:55:00,58.2,52.1,30.21,SW,233,0.0,2.3,80,0.00,SCT,,0.01,WeatherDisplay:10.37,2013-09-29 15:55:00,
2013-09-29 12:00:00,58.6,52.1,30.21,South,190,0.2,2.0,79,0.00,SCT,,0.01,WeatherDisplay:10.37,2013-09-29 16:00:00,
2013-09-29 12:05:00,59.1,51.9,30.20,East,96,2.2,4.6,77,0.00,FEW,,0.01,WeatherDisplay:10.37,2013-09-29 16:05:00,
2013-09-29 12:10:00,59.6,51.3,30.20,South,184,0.8,1.2,74,0.00,FEW,,0.01,WeatherDisplay:10.37,2013-09-29 16:10:00,
2013-09-29 12:15:00,60.2,51.9,30.20,SSW,211,0.2,2.3,74,0.00,FEW,,0.01,WeatherDisplay:10.37,2013-09-29 16:15:00,
2013-09-29 12:20:00,60.8,52.5,30.20,NW,304,0.6,2.3,74,0.00,FEW,,0.01,WeatherDisplay:10.37,2013-09-29 16:20:00,
2013-09-29 12:25:00,61.4,51.9,30.20,East,101,2.0,4.6,71,0.00,FEW,,0.01,WeatherDisplay:10.37,2013-09-29 16:25:00,
2013-09-29 12:30:00,61.8,51.9,30.20,South,183,3.2,3.5,70,0.00,FEW,,0.01,WeatherDisplay:10.37,2013-09-29 16:30:00,
2013-09-29 12:35:00,62.0,52.1,30.20,South,190,2.8,3.5,70,0.00,FEW,,0.01,WeatherDisplay:10.37,2013-09-29 16:35:00,
2013-09-29 12:40:00,62.3,51.6,30.19,WSW,254,0.0,1.2,68,0.00,FEW,,0.01,WeatherDisplay:10.37,2013-09-29 16:40:00,
2013-09-29 12:45:00,62.7,49.9,30.19,South,190,1.6,2.3,63,0.00,FEW,,0.01,WeatherDisplay:10.37,2013-09-29 16:45:00,
2013-09-29 12:50:00,63.3,49.6,30.19,South,189,3.2,6.0,61,0.00,FEW,,0.01,WeatherDisplay:10.37,2013-09-29 16:50:00,
2013-09-29 12:55:00,63.8,50.5,30.19,East,91,1.1,4.6,62,0.00,FEW,,0.01,WeatherDisplay:10.37,2013-09-29 16:55:00,
2013-09-29 13:00:00,64.1,48.5,30.19,SE,144,3.7,5.0,57,0.00,FEW,,0.01,WeatherDisplay:10.37,2013-09-29 17:00:00,
2013-09-29 13:05:00,64.6,49.0,30.19,SSE,150,1.9,3.5,57,0.00,CLR,,0.01,WeatherDisplay:10.37,2013-09-29 17:05:00,
2013-09-29 13:10:00,64.9,49.3,30.19,SSE,159,1.0,2.0,57,0.00,CLR,,0.01,WeatherDisplay:10.37,2013-09-29 17:10:00,
2013-09-29 13:15:00,65.3,49.2,30.19,SSW,194,0.4,1.2,56,0.00,CLR,,0.01,WeatherDisplay:10.37,2013-09-29 17:15:00,
2013-09-29 13:20:00,65.8,48.7,30.19,ESE,115,0.4,2.0,54,0.00,CLR,,0.01,WeatherDisplay:10.37,2013-09-29 17:20:00,
2013-09-29 13:25:00,66.2,48.6,30.18,ENE,69,0.2,2.3,53,0.00,CLR,,0.01,WeatherDisplay:10.37,2013-09-29 17:25:00,
2013-09-29 13:30:00,66.4,48.2,30.18,NW,322,1.1,2.3,52,0.00,CLR,,0.01,WeatherDisplay:10.37,2013-09-29 17:30:00,
2013-09-29 13:35:00,66.2,47.5,30.18,WNW,288,1.1,3.5,51,0.00,CLR,,0.01,WeatherDisplay:10.37,2013-09-29 17:35:00,
2013-09-29 13:40:00,66.5,48.8,30.18,WNW,288,0.5,1.2,53,0.00,CLR,,0.01,WeatherDisplay:10.37,2013-09-29 17:40:00,
2013-09-29 13:45:00,66.8,47.6,30.18,South,170,2.8,4.6,50,0.00,CLR,,0.01,WeatherDisplay:10.37,2013-09-29 17:45:00,
2013-09-29 13:50:00,66.9,48.2,30.17,SSE,161,1.0,1.2,51,0.00,CLR,,0.01,WeatherDisplay:10.37,2013-09-29 17:50:00,
2013-09-29 13:55:00,67.2,47.4,30.17,SE,141,1.3,3.5,49,0.00,CLR,,0.01,WeatherDisplay:10.37,2013-09-29 17:55:00,
2013-09-29 14:00:00,67.3,46.9,30.17,West,271,0.3,1.2,48,0.00,CLR,,0.01,WeatherDisplay:10.37,2013-09-29 18:00:00,
2013-09-29 14:05:00,67.3,47.5,30.17,West,271,0.7,1.2,49,0.00,CLR,,0.01,WeatherDisplay:10.37,2013-09-29 18:05:00,
2013-09-29 14:10:00,67.6,47.8,30.17,West,263,0.4,2.0,49,0.00,CLR,,0.01,WeatherDisplay:10.37,2013-09-29 18:10:00,
2013-09-29 14:15:00,67.7,45.6,30.16,SW,235,2.2,4.6,45,0.00,CLR,,0.01,WeatherDisplay:10.37,2013-09-29 18:15:00,
2013-09-29 14:20:00,67.4,45.9,30.16,SE,134,1.4,3.5,46,0.00,CLR,,0.01,WeatherDisplay:10.37,2013-09-29 18:20:00,
2013-09-29 14:25:00,67.6,44.9,30.16,SSE,163,0.6,2.3,44,0.00,CLR,,0.01,WeatherDisplay:10.37,2013-09-29 18:25:00,
2013-09-29 14:30:00,67.8,45.1,30.16,SE,134,1.8,2.3,44,0.00,CLR,,0.01,WeatherDisplay:10.37,2013-09-29 18:30:00,
2013-09-29 14:35:00,67.7,44.4,30.16,SSE,157,0.5,1.2,43,0.00,CLR,,0.01,WeatherDisplay:10.37,2013-09-29 18:35:00,
2013-09-29 14:40:00,68.0,44.7,30.15,South,188,0.4,3.5,43,0.00,CLR,,0.01,WeatherDisplay:10.37,2013-09-29 18:40:00,
2013-09-29 14:45:00,68.6,47.0,30.15,South,188,0.1,1.2,46,0.00,CLR,,0.01,WeatherDisplay:10.37,2013-09-29 18:45:00,
2013-09-29 14:50:00,69.3,46.4,30.15,SSW,208,0.4,1.2,44,0.00,CLR,,0.01,WeatherDisplay:10.37,2013-09-29 18:50:00,
2013-09-29 14:55:00,69.6,47.3,30.15,SE,136,0.6,2.3,45,0.00,CLR,,0.01,WeatherDisplay:10.37,2013-09-29 18:55:00,
2013-09-29 15:00:00,68.8,45.4,30.14,ESE,121,0.8,3.5,43,0.00,CLR,,0.01,WeatherDisplay:10.37,2013-09-29 19:00:00,
2013-09-29 15:05:00,68.7,46.5,30.14,NE,54,0.6,2.0,45,0.00,CLR,,0.01,WeatherDisplay:10.37,2013-09-29 19:05:00,
2013-09-29 15:10:00,68.5,46.3,30.14,NW,309,0.8,3.5,45,0.00,CLR,,0.01,WeatherDisplay:10.37,2013-09-29 19:10:00,
2013-09-29 15:15:00,68.6,47.6,30.14,NW,323,2.1,3.5,47,0.00,CLR,,0.01,WeatherDisplay:10.37,2013-09-29 19:15:00,
2013-09-29 15:20:00,68.1,47.1,30.14,NW,322,1.0,2.3,47,0.00,CLR,,0.01,WeatherDisplay:10.37,2013-09-29 19:20:00,
2013-09-29 15:25:00,67.9,47.5,30.14,NNW,344,0.3,1.2,48,0.00,CLR,,0.01,WeatherDisplay:10.37,2013-09-29 19:25:00,
2013-09-29 15:30:00,68.2,47.8,30.13,West,271,0.2,2.3,48,0.00,CLR,,0.01,WeatherDisplay:10.37,2013-09-29 19:30:00,
2013-09-29 15:35:00,68.2,48.3,30.13,WNW,302,0.2,1.2,49,0.00,CLR,,0.01,WeatherDisplay:10.37,2013-09-29 19:35:00,
2013-09-29 15:40:00,68.1,47.7,30.13,South,180,0.2,3.0,48,0.00,CLR,,0.01,WeatherDisplay:10.37,2013-09-29 19:40:00,
2013-09-29 15:45:00,68.5,47.5,30.13,SSE,148,2.3,3.5,47,0.00,CLR,,0.01,WeatherDisplay:10.37,2013-09-29 19:45:00,
2013-09-29 15:48:00,68.7,46.5,30.13,SE,145,0.0,1.2,45,0.00,CLR,,0.01,WeatherDisplay:10.37,2013-09-29 19:48:00,
2013-09-29 15:53:00,69.1,46.9,30.13,West,279,0.7,1.2,45,0.00,CLR,,0.01,WeatherDisplay:10.37,2013-09-29 19:53:00,
2013-09-29 15:58:00,68.7,48.2,30.13,NW,309,2.2,3.5,48,0.00,CLR,,0.01,WeatherDisplay:10.37,2013-09-29 19:58:00,
2013-09-29 16:03:00,67.9,48.6,30.13,West,261,0.6,2.3,50,0.00,CLR,,0.01,WeatherDisplay:10.37,2013-09-29 20:03:00,
2013-09-29 16:08:00,68.1,49.3,30.13,East,86,2.1,3.5,51,0.00,CLR,,0.01,WeatherDisplay:10.37,2013-09-29 20:08:00,
2013-09-29 16:13:00,68.1,48.2,30.13,SSE,163,1.4,2.3,49,0.00,CLR,,0.01,WeatherDisplay:10.37,2013-09-29 20:13:00,
2013-09-29 16:18:00,68.6,48.7,30.13,South,190,2.7,4.6,49,0.00,CLR,,0.01,WeatherDisplay:10.37,2013-09-29 20:18:00,
2013-09-29 16:23:00,68.3,51.0,30.13,SW,232,1.4,4.0,54,0.00,CLR,,0.01,WeatherDisplay:10.37,2013-09-29 20:23:00,
2013-09-29 16:28:00,67.7,50.9,30.12,SE,144,0.2,1.2,55,0.00,CLR,,0.01,WeatherDisplay:10.37,2013-09-29 20:28:00,
2013-09-29 16:33:00,67.3,52.0,30.12,ESE,113,0.2,1.0,58,0.00,CLR,,0.01,WeatherDisplay:10.37,2013-09-29 20:33:00,
2013-09-29 16:38:00,67.1,50.9,30.12,ESE,119,1.3,4.0,56,0.00,CLR,,0.01,WeatherDisplay:10.37,2013-09-29 20:38:00,
2013-09-29 16:43:00,67.0,51.7,30.12,South,171,2.6,8.0,58,0.00,CLR,,0.01,WeatherDisplay:10.37,2013-09-29 20:43:00,
2013-09-29 16:48:00,66.6,50.9,30.12,SE,138,1.4,3.5,57,0.00,CLR,,0.01,WeatherDisplay:10.37,2013-09-29 20:48:00,
2013-09-29 16:53:00,66.5,50.8,30.13,ESE,121,3.7,5.8,57,0.00,CLR,,0.01,WeatherDisplay:10.37,2013-09-29 20:53:00,
2013-09-29 16:58:00,66.3,51.1,30.13,SSE,153,1.3,3.5,58,0.00,CLR,,0.01,WeatherDisplay:10.37,2013-09-29 20:58:00,
2013-09-29 17:03:00,66.0,50.8,30.13,SSE,149,3.5,4.6,58,0.00,CLR,,0.01,WeatherDisplay:10.37,2013-09-29 21:03:00,
2013-09-29 17:08:00,65.7,51.4,30.13,South,183,3.2,4.6,60,0.00,CLR,,0.01,WeatherDisplay:10.37,2013-09-29 21:08:00,
2013-09-29 17:13:00,65.5,51.7,30.13,South,170,0.3,2.3,61,0.00,CLR,,0.01,WeatherDisplay:10.37,2013-09-29 21:13:00,
2013-09-29 17:18:00,65.4,51.6,30.13,ESE,123,0.1,1.2,61,0.00,CLR,,0.01,WeatherDisplay:10.37,2013-09-29 21:18:00,
2013-09-29 17:23:00,65.3,52.4,30.13,South,180,0.3,1.2,63,0.00,CLR,,0.01,WeatherDisplay:10.37,2013-09-29 21:23:00,
2013-09-29 17:28:00,65.2,52.3,30.13,South,180,0.5,2.3,63,0.00,CLR,,0.01,WeatherDisplay:10.37,2013-09-29 21:28:00,
2013-09-29 17:33:00,65.0,52.1,30.13,SSE,168,2.0,3.5,63,0.00,CLR,,0.01,WeatherDisplay:10.37,2013-09-29 21:33:00,
2013-09-29 17:38:00,64.5,52.0,30.13,ESE,103,2.3,3.5,64,0.00,CLR,,0.01,WeatherDisplay:10.37,2013-09-29 21:38:00,
2013-09-29 17:43:00,64.0,52.4,30.13,SSE,150,1.9,6.9,66,0.00,CLR,,0.01,WeatherDisplay:10.37,2013-09-29 21:43:00,
2013-09-29 17:48:00,63.5,52.3,30.13,ESE,114,2.0,4.6,67,0.00,CLR,,0.01,WeatherDisplay:10.37,2013-09-29 21:48:00,
2013-09-29 17:53:00,62.9,52.2,30.13,SSE,161,1.0,3.5,68,0.00,CLR,,0.01,WeatherDisplay:10.37,2013-09-29 21:53:00,
2013-09-29 17:58:00,62.4,52.1,30.14,South,185,1.5,3.5,69,0.00,CLR,,0.01,WeatherDisplay:10.37,2013-09-29 21:58:00,
2013-09-29 18:03:00,61.8,52.3,30.13,South,182,0.5,2.3,71,0.00,CLR,,0.01,WeatherDisplay:10.37,2013-09-29 22:03:00,
2013-09-29 18:08:00,61.4,52.3,30.14,South,169,1.5,3.5,72,0.00,CLR,,0.01,WeatherDisplay:10.37,2013-09-29 22:08:00,
2013-09-29 18:13:00,60.9,52.2,30.13,ESE,115,0.4,2.3,73,0.00,CLR,,0.01,WeatherDisplay:10.37,2013-09-29 22:13:00,
2013-09-29 18:18:00,60.4,52.1,30.13,ESE,116,0.0,1.2,74,0.00,CLR,,0.01,WeatherDisplay:10.37,2013-09-29 22:18:00,
2013-09-29 18:23:00,60.1,52.1,30.13,ESE,111,0.0,1.2,75,0.00,CLR,,0.01,WeatherDisplay:10.37,2013-09-29 22:23:00,
2013-09-29 18:28:00,59.7,52.1,30.13,East,90,0.0,0.0,76,0.00,CLR,,0.01,WeatherDisplay:10.37,2013-09-29 22:28:00,
2013-09-29 18:33:00,59.3,52.1,30.13,East,90,0.0,0.0,77,0.00,CLR,,0.01,WeatherDisplay:10.37,2013-09-29 22:33:00,
2013-09-29 18:38:00,58.8,52.0,30.13,East,90,0.0,0.0,78,0.00,CLR,,0.01,WeatherDisplay:10.37,2013-09-29 22:38:00,
2013-09-29 18:43:00,58.4,51.9,30.13,East,90,0.0,0.0,79,0.00,CLR,,0.01,WeatherDisplay:10.37,2013-09-29 22:43:00,
2013-09-29 18:48:00,57.8,51.7,30.13,East,90,0.0,0.0,80,0.00,CLR,,0.01,WeatherDisplay:10.37,2013-09-29 22:48:00,
2013-09-29 18:53:00,57.3,51.5,30.13,East,90,0.1,0.0,81,0.00,CLR,,0.01,WeatherDisplay:10.37,2013-09-29 22:53:00,
2013-09-29 18:58:00,56.9,51.5,30.13,East,90,0.0,0.0,82,0.00,CLR,,0.01,WeatherDisplay:10.37,2013-09-29 22:58:00,
2013-09-29 19:04:00,56.4,51.3,30.13,East,90,0.0,0.0,83,0.00,CLR,,0.01,WeatherDisplay:10.37,2013-09-29 23:04:00,
2013-09-29 19:09:00,55.9,51.1,30.13,East,90,0.0,0.0,84,0.00,CLR,,0.01,WeatherDisplay:10.37,2013-09-29 23:09:00,
2013-09-29 19:14:00,55.5,51.1,30.13,East,90,0.0,0.0,85,0.00,CLR,,0.01,WeatherDisplay:10.37,2013-09-29 23:14:00,
2013-09-29 19:19:00,55.0,50.6,30.13,East,90,0.0,0.0,85,0.00,CLR,,0.01,WeatherDisplay:10.37,2013-09-29 23:19:00,
2013-09-29 19:24:00,54.7,50.6,30.14,East,90,0.0,0.0,86,0.00,CLR,,0.01,WeatherDisplay:10.37,2013-09-29 23:24:00,
2013-09-29 19:29:00,54.4,50.3,30.14,East,90,0.0,0.0,86,0.00,CLR,,0.01,WeatherDisplay:10.37,2013-09-29 23:29:00,
2013-09-29 19:34:00,54.1,50.3,30.13,East,90,0.0,0.0,87,0.00,CLR,,0.01,WeatherDisplay:10.37,2013-09-29 23:34:00,
2013-09-29 19:39:00,53.8,50.0,30.13,East,90,0.0,0.0,87,0.00,CLR,,0.01,WeatherDisplay:10.37,2013-09-29 23:39:00,
2013-09-29 19:44:00,53.5,50.0,30.14,East,90,0.0,0.0,88,0.00,CLR,,0.01,WeatherDisplay:10.37,2013-09-29 23:44:00,
2013-09-29 19:49:00,53.3,49.8,30.14,East,90,0.0,0.0,88,0.00,CLR,,0.01,WeatherDisplay:10.37,2013-09-29 23:49:00,
2013-09-29 19:54:00,53.1,49.9,30.14,East,90,0.0,0.0,89,0.00,CLR,,0.01,WeatherDisplay:10.37,2013-09-29 23:54:00,
2013-09-29 19:59:00,52.8,49.6,30.14,East,90,0.0,0.0,89,0.00,CLR,,0.01,WeatherDisplay:10.37,2013-09-29 23:59:00,
2013-09-29 20:04:00,52.5,49.4,30.14,East,90,0.0,0.0,89,0.00,CLR,,0.01,WeatherDisplay:10.37,2013-09-30 00:04:00,
2013-09-29 20:09:00,52.2,49.1,30.13,East,90,0.0,0.0,89,0.00,CLR,,0.01,WeatherDisplay:10.37,2013-09-30 00:09:00,
2013-09-29 20:14:00,51.9,49.1,30.13,East,90,0.0,0.0,90,0.00,CLR,,0.01,WeatherDisplay:10.37,2013-09-30 00:14:00,
2013-09-29 20:19:00,51.7,48.9,30.13,East,90,0.0,0.0,90,0.00,CLR,,0.01,WeatherDisplay:10.37,2013-09-30 00:19:00,
2013-09-29 20:24:00,51.6,48.8,30.13,East,90,0.0,0.0,90,0.00,CLR,,0.01,WeatherDisplay:10.37,2013-09-30 00:24:00,
2013-09-29 20:29:00,51.3,48.8,30.13,East,90,0.0,0.0,91,0.00,CLR,,0.01,WeatherDisplay:10.37,2013-09-30 00:29:00,
2013-09-29 20:34:00,51.1,48.6,30.13,East,90,0.0,0.0,91,0.00,CLR,,0.01,WeatherDisplay:10.37,2013-09-30 00:34:00,
2013-09-29 20:39:00,50.8,48.3,30.13,East,90,0.0,0.0,91,0.00,CLR,,0.01,WeatherDisplay:10.37,2013-09-30 00:39:00,
2013-09-29 20:44:00,50.6,48.1,30.13,East,90,0.0,0.0,91,0.00,CLR,,0.01,WeatherDisplay:10.37,2013-09-30 00:44:00,
2013-09-29 20:49:00,50.4,47.9,30.13,East,90,0.0,0.0,91,0.00,CLR,,0.01,WeatherDisplay:10.37,2013-09-30 00:49:00,
2013-09-29 20:54:00,50.1,47.9,30.13,East,90,0.0,0.0,92,0.00,CLR,,0.01,WeatherDisplay:10.37,2013-09-30 00:54:00,
2013-09-29 20:59:00,49.9,47.4,30.13,East,90,0.0,0.0,91,0.00,CLR,,0.01,WeatherDisplay:10.37,2013-09-30 00:59:00,
2013-09-29 21:04:00,49.6,47.4,30.13,East,90,0.0,0.0,92,0.00,CLR,,0.01,WeatherDisplay:10.37,2013-09-30 01:04:00,
2013-09-29 21:09:00,49.4,47.2,30.13,East,90,0.0,0.0,92,0.00,CLR,,0.01,WeatherDisplay:10.37,2013-09-30 01:09:00,
2013-09-29 21:14:00,49.3,47.1,30.13,East,90,0.0,0.0,92,0.00,CLR,,0.01,WeatherDisplay:10.37,2013-09-30 01:14:00,
2013-09-29 21:19:00,49.2,47.3,30.13,East,90,0.0,0.0,93,0.00,CLR,,0.01,WeatherDisplay:10.37,2013-09-30 01:19:00,
2013-09-29 21:24:00,49.0,46.8,30.13,East,90,0.0,0.0,92,0.00,CLR,,0.01,WeatherDisplay:10.37,2013-09-30 01:24:00,
2013-09-29 21:29:00,48.9,47.0,30.13,East,90,0.0,0.0,93,0.00,CLR,,0.01,WeatherDisplay:10.37,2013-09-30 01:29:00,
2013-09-29 21:34:00,48.8,46.9,30.13,East,90,0.0,0.0,93,0.00,CLR,,0.01,WeatherDisplay:10.37,2013-09-30 01:34:00,
2013-09-29 21:39:00,48.7,46.8,30.13,East,90,0.0,0.0,93,0.00,CLR,,0.01,WeatherDisplay:10.37,2013-09-30 01:39:00,
2013-09-29 21:44:00,48.5,46.6,30.13,East,90,0.0,0.0,93,0.00,CLR,,0.01,WeatherDisplay:10.37,2013-09-30 01:44:00,
2013-09-29 21:49:00,48.3,46.4,30.13,East,90,0.0,0.0,93,0.00,CLR,,0.01,WeatherDisplay:10.37,2013-09-30 01:49:00,
2013-09-29 21:54:00,48.1,45.9,30.13,East,90,0.0,0.0,92,0.00,CLR,,0.01,WeatherDisplay:10.37,2013-09-30 01:54:00,
2013-09-29 21:59:00,47.9,46.0,30.13,East,90,0.0,0.0,93,0.00,CLR,,0.01,WeatherDisplay:10.37,2013-09-30 01:59:00,
2013-09-29 22:04:00,47.7,45.8,30.13,East,90,0.0,0.0,93,0.00,CLR,,0.01,WeatherDisplay:10.37,2013-09-30 02:04:00,
2013-09-29 22:09:00,47.5,45.6,30.12,East,90,0.0,0.0,93,0.00,CLR,,0.01,WeatherDisplay:10.37,2013-09-30 02:09:00,
2013-09-29 22:14:00,47.4,45.5,30.13,East,90,0.0,0.0,93,0.00,CLR,,0.01,WeatherDisplay:10.37,2013-09-30 02:14:00,
2013-09-29 22:19:00,47.2,45.3,30.13,East,90,0.0,0.0,93,0.00,CLR,,0.01,WeatherDisplay:10.37,2013-09-30 02:19:00,
2013-09-29 22:24:00,47.1,45.2,30.13,East,90,0.0,0.0,93,0.00,CLR,,0.01,WeatherDisplay:10.37,2013-09-30 02:24:00,
2013-09-29 22:29:00,46.9,45.0,30.13,East,90,0.0,0.0,93,0.00,CLR,,0.01,WeatherDisplay:10.37,2013-09-30 02:29:00,
2013-09-29 22:34:00,46.6,44.7,30.13,East,90,0.0,0.0,93,0.00,CLR,,0.01,WeatherDisplay:10.37,2013-09-30 02:34:00,
2013-09-29 22:39:00,46.5,44.9,30.13,East,90,0.0,0.0,94,0.00,CLR,,0.01,WeatherDisplay:10.37,2013-09-30 02:39:00,
2013-09-29 22:44:00,46.4,44.8,30.13,East,90,0.0,0.0,94,0.00,CLR,,0.01,WeatherDisplay:10.37,2013-09-30 02:44:00,
2013-09-29 22:49:00,46.4,44.8,30.13,East,90,0.0,0.0,94,0.00,CLR,,0.01,WeatherDisplay:10.37,2013-09-30 02:49:00,
2013-09-29 22:54:00,46.3,44.7,30.13,East,90,0.0,0.0,94,0.00,CLR,,0.01,WeatherDisplay:10.37,2013-09-30 02:54:00,
2013-09-29 22:59:00,46.1,44.5,30.13,East,90,0.0,0.0,94,0.00,CLR,,0.01,WeatherDisplay:10.37,2013-09-30 02:59:00,
2013-09-29 23:04:00,45.9,44.3,30.13,East,90,0.0,1.2,94,0.00,CLR,,0.01,WeatherDisplay:10.37,2013-09-30 03:04:00,
2013-09-29 23:09:00,45.7,44.1,30.13,East,90,0.0,0.0,94,0.00,CLR,,0.01,WeatherDisplay:10.37,2013-09-30 03:09:00,
2013-09-29 23:14:00,45.5,43.9,30.13,East,90,0.0,0.0,94,0.00,CLR,,0.01,WeatherDisplay:10.37,2013-09-30 03:14:00,
2013-09-29 23:19:00,45.4,43.8,30.13,East,90,0.0,0.0,94,0.00,CLR,,0.01,WeatherDisplay:10.37,2013-09-30 03:19:00,
2013-09-29 23:24:00,45.2,43.6,30.13,East,90,0.0,0.0,94,0.00,CLR,,0.01,WeatherDisplay:10.37,2013-09-30 03:24:00,
2013-09-29 23:29:00,45.0,43.4,30.13,East,90,0.0,0.0,94,0.00,CLR,,0.01,WeatherDisplay:10.37,2013-09-30 03:29:00,
2013-09-29 23:34:00,44.9,43.3,30.13,East,90,0.0,0.0,94,0.00,CLR,,0.01,WeatherDisplay:10.37,2013-09-30 03:34:00,
2013-09-29 23:39:00,44.8,43.2,30.13,East,90,0.0,0.0,94,0.00,CLR,,0.01,WeatherDisplay:10.37,2013-09-30 03:39:00,
2013-09-29 23:44:00,44.6,43.0,30.13,East,90,0.0,0.0,94,0.00,CLR,,0.01,WeatherDisplay:10.37,2013-09-30 03:44:00,
2013-09-29 23:49:00,44.6,43.0,30.13,East,90,0.0,0.0,94,0.00,BKN,,0.01,WeatherDisplay:10.37,2013-09-30 03:49:00,
2013-09-29 23:54:00,44.5,42.9,30.13,East,90,0.0,0.0,94,0.00,BKN,,0.01,WeatherDisplay:10.37,2013-09-30 03:54:00,
2013-09-29 23:59:00,44.5,43.2,30.13,East,90,0.0,0.0,95,0.00,BKN,,0.01,WeatherDisplay:10.37,2013-09-30 03:59:00,